Sunflower Gold — JD2460 — position and weather

sailwx.info

Track history (hours):
 
Tides and Currents Weather Stations Pressure Air Temp Water Temp Dewpoint Dewpoint Depression Visibility Wind Speed Wind Dir Waves Ship Positions

Sunflower Gold

Last reported at 2016-Dec-07 11:26 UTC. Time now 2016-Dec-07 18:27 UTC.
Position N 34°35' E 134°54'.

Length 166 m; draft 5.8 m.

Type: Passenger vessel. MMSI: 431000331.

Date/timePositionNaut miles runAvg speedWind from/ knotsBaromVisibWave heightAir tempDewpointWater temp
2016-Dec-07 11:26N 34°35' E 134°54'1517.0
2016-Dec-07 10:33N 34°37' E 135°12'7 6.8
2016-Dec-07 09:33N 34°42' E 135°17'0 0.0
2016-Dec-07 08:33N 34°42' E 135°17'0 0.0
2016-Dec-07 07:33N 34°42' E 135°17'0 0.0
2016-Dec-07 06:33N 34°42' E 135°17'0 0.0
2016-Dec-07 05:33N 34°42' E 135°17'0 0.0
2016-Dec-07 04:33N 34°42' E 135°17'0 0.0
2016-Dec-07 03:33N 34°42' E 135°17'0 0.0
2016-Dec-07 02:33N 34°42' E 135°17'0 0.0
2016-Dec-07 01:33N 34°42' E 135°17'0 0.0
2016-Dec-07 00:33N 34°42' E 135°17'0 0.0
2016-Dec-06 23:33N 34°42' E 135°17'0 0.0
2016-Dec-06 22:27N 34°42' E 135°17'0 0.0
2016-Dec-06 21:33N 34°42' E 135°17'1110.8
2016-Dec-06 20:33N 34°35' E 135°07'11 0.3
2016-Dec-05 11:19N 34°36' E 134°54'1418.7
2016-Dec-05 10:33N 34°36' E 135°12'7 6.6
2016-Dec-05 09:30N 34°42' E 135°17'0 0.0
2016-Dec-05 08:24N 34°42' E 135°17'0 0.0
2016-Dec-05 07:12N 34°42' E 135°17'0 0.0
2016-Dec-05 06:30N 34°42' E 135°17'0 0.0
2016-Dec-05 05:18N 34°42' E 135°17'0 0.0
2016-Dec-05 04:24N 34°42' E 135°17'0 0.0
2016-Dec-05 03:30N 34°42' E 135°17'0 0.0
2016-Dec-05 02:30N 34°42' E 135°17'0 0.0
2016-Dec-05 01:30N 34°42' E 135°17'0 0.0
2016-Dec-05 00:30N 34°42' E 135°17'0 0.0
2016-Dec-04 23:30N 34°42' E 135°17'0 0.0
2016-Dec-04 22:30N 34°42' E 135°17'0 0.0
2016-Dec-04 21:33N 34°42' E 135°17'1111.0
2016-Dec-04 20:33N 34°34' E 135°07'15 0.5
2016-Dec-03 12:24N 34°34' E 134°49'1619.3
2016-Dec-03 11:33N 34°36' E 135°08'9 9.4
2016-Dec-03 10:33N 34°42' E 135°17'0 0.0
2016-Dec-03 09:31N 34°42' E 135°17'0 0.0
2016-Dec-03 08:25N 34°42' E 135°17'0 0.0
2016-Dec-03 07:31N 34°42' E 135°17'0 0.0
2016-Dec-03 06:25N 34°42' E 135°17'0 0.0
2016-Dec-03 05:31N 34°42' E 135°17'0 0.0
2016-Dec-03 04:25N 34°42' E 135°17'0 0.0
2016-Dec-03 03:31N 34°42' E 135°17'0 0.0
2016-Dec-03 02:31N 34°42' E 135°17'0 0.0
2016-Dec-03 01:25N 34°42' E 135°17'0 0.0
2016-Dec-03 00:31N 34°42' E 135°17'0 0.0
2016-Dec-02 23:31N 34°42' E 135°17'1 1.5
2016-Dec-02 22:34N 34°41' E 135°18'1414.1
2016-Dec-02 21:33N 34°36' E 135°02'6 0.2
2016-Dec-01 11:33N 34°36' E 134°54'2020.0
2016-Dec-01 10:33N 34°35' E 135°18'7 6.0
2016-Dec-01 09:28N 34°42' E 135°17'0 0.0
2016-Dec-01 08:28N 34°42' E 135°17'0 0.0
2016-Dec-01 07:25N 34°42' E 135°17'0 0.0
2016-Dec-01 06:31N 34°42' E 135°17'0 0.0
2016-Dec-01 05:31N 34°42' E 135°17'0 0.0
2016-Dec-01 04:13N 34°42' E 135°17'0 0.0
2016-Dec-01 03:31N 34°42' E 135°17'0 0.0
2016-Dec-01 02:07N 34°42' E 135°17'0 0.0
2016-Dec-01 01:31N 34°42' E 135°17'0 0.0
2016-Dec-01 00:31N 34°42' E 135°17'0 0.0
2016-Nov-30 23:31N 34°42' E 135°17'0 0.0
2016-Nov-30 22:31N 34°42' E 135°17'0 0.0
2016-Nov-30 21:33N 34°42' E 135°17'1212.2
2016-Nov-30 20:33N 34°34' E 135°05'12 0.4
2016-Nov-29 11:29N 34°34' E 134°50'1819.5
2016-Nov-29 10:33N 34°36' E 135°12'7 6.6
2016-Nov-29 09:33N 34°42' E 135°17'0 0.0
2016-Nov-29 08:30N 34°42' E 135°17'0 0.0
2016-Nov-29 07:30N 34°42' E 135°17'0 0.0
2016-Nov-29 06:24N 34°42' E 135°17'0 0.0
2016-Nov-29 05:30N 34°42' E 135°17'0 0.0
2016-Nov-29 04:24N 34°42' E 135°17'0 0.0
2016-Nov-29 03:24N 34°42' E 135°17'0 0.0
2016-Nov-29 02:24N 34°42' E 135°17'0 0.0
2016-Nov-29 01:30N 34°42' E 135°17'0 0.0
2016-Nov-29 00:30N 34°42' E 135°17'0 0.0
2016-Nov-28 23:24N 34°42' E 135°17'0 0.0
2016-Nov-28 22:30N 34°42' E 135°17'0 0.0
2016-Nov-28 21:33N 34°42' E 135°17'10 9.7
2016-Nov-28 20:33N 34°35' E 135°09'17 0.5
2016-Nov-27 11:28N 34°34' E 134°49'  
Track history (hours):
 
Tides and Currents Weather Stations Pressure Air Temp Water Temp Dewpoint Dewpoint Depression Visibility Wind Speed Wind Dir Waves Ship Positions

Sunflower Gold

Last reported at 2016-Dec-07 11:26 UTC. Time now 2016-Dec-07 18:27 UTC.
Position N 34°35' E 134°54'.

Length 166 m; draft 5.8 m.

Type: Passenger vessel. MMSI: 431000331.

Date/timePositionNaut miles runAvg speedWind from/ knotsBaromVisibWave heightAir tempDewpointWater temp
2016-Dec-07 11:26N 34°35' E 134°54'1517.0
2016-Dec-07 10:33N 34°37' E 135°12'7 6.8
2016-Dec-07 09:33N 34°42' E 135°17'0 0.0
2016-Dec-07 08:33N 34°42' E 135°17'0 0.0
2016-Dec-07 07:33N 34°42' E 135°17'0 0.0
2016-Dec-07 06:33N 34°42' E 135°17'0 0.0
2016-Dec-07 05:33N 34°42' E 135°17'0 0.0
2016-Dec-07 04:33N 34°42' E 135°17'0 0.0
2016-Dec-07 03:33N 34°42' E 135°17'0 0.0
2016-Dec-07 02:33N 34°42' E 135°17'0 0.0
2016-Dec-07 01:33N 34°42' E 135°17'0 0.0
2016-Dec-07 00:33N 34°42' E 135°17'0 0.0
2016-Dec-06 23:33N 34°42' E 135°17'0 0.0
2016-Dec-06 22:27N 34°42' E 135°17'0 0.0
2016-Dec-06 21:33N 34°42' E 135°17'1110.8
2016-Dec-06 20:33N 34°35' E 135°07'11 0.3
2016-Dec-05 11:19N 34°36' E 134°54'1418.7
2016-Dec-05 10:33N 34°36' E 135°12'7 6.6
2016-Dec-05 09:30N 34°42' E 135°17'0 0.0
2016-Dec-05 08:24N 34°42' E 135°17'0 0.0
2016-Dec-05 07:12N 34°42' E 135°17'0 0.0
2016-Dec-05 06:30N 34°42' E 135°17'0 0.0
2016-Dec-05 05:18N 34°42' E 135°17'0 0.0
2016-Dec-05 04:24N 34°42' E 135°17'0 0.0
2016-Dec-05 03:30N 34°42' E 135°17'0 0.0
2016-Dec-05 02:30N 34°42' E 135°17'0 0.0
2016-Dec-05 01:30N 34°42' E 135°17'0 0.0
2016-Dec-05 00:30N 34°42' E 135°17'0 0.0
2016-Dec-04 23:30N 34°42' E 135°17'0 0.0
2016-Dec-04 22:30N 34°42' E 135°17'0 0.0
2016-Dec-04 21:33N 34°42' E 135°17'1111.0
2016-Dec-04 20:33N 34°34' E 135°07'15 0.5
2016-Dec-03 12:24N 34°34' E 134°49'1619.3
2016-Dec-03 11:33N 34°36' E 135°08'9 9.4
2016-Dec-03 10:33N 34°42' E 135°17'0 0.0
2016-Dec-03 09:31N 34°42' E 135°17'0 0.0
2016-Dec-03 08:25N 34°42' E 135°17'0 0.0
2016-Dec-03 07:31N 34°42' E 135°17'0 0.0
2016-Dec-03 06:25N 34°42' E 135°17'0 0.0
2016-Dec-03 05:31N 34°42' E 135°17'0 0.0
2016-Dec-03 04:25N 34°42' E 135°17'0 0.0
2016-Dec-03 03:31N 34°42' E 135°17'0 0.0
2016-Dec-03 02:31N 34°42' E 135°17'0 0.0
2016-Dec-03 01:25N 34°42' E 135°17'0 0.0
2016-Dec-03 00:31N 34°42' E 135°17'0 0.0
2016-Dec-02 23:31N 34°42' E 135°17'1 1.5
2016-Dec-02 22:34N 34°41' E 135°18'1414.1
2016-Dec-02 21:33N 34°36' E 135°02'6 0.2
2016-Dec-01 11:33N 34°36' E 134°54'2020.0
2016-Dec-01 10:33N 34°35' E 135°18'7 6.0
2016-Dec-01 09:28N 34°42' E 135°17'0 0.0
2016-Dec-01 08:28N 34°42' E 135°17'0 0.0
2016-Dec-01 07:25N 34°42' E 135°17'0 0.0
2016-Dec-01 06:31N 34°42' E 135°17'0 0.0
2016-Dec-01 05:31N 34°42' E 135°17'0 0.0
2016-Dec-01 04:13N 34°42' E 135°17'0 0.0
2016-Dec-01 03:31N 34°42' E 135°17'0 0.0
2016-Dec-01 02:07N 34°42' E 135°17'0 0.0
2016-Dec-01 01:31N 34°42' E 135°17'0 0.0
2016-Dec-01 00:31N 34°42' E 135°17'0 0.0
2016-Nov-30 23:31N 34°42' E 135°17'0 0.0
2016-Nov-30 22:31N 34°42' E 135°17'0 0.0
2016-Nov-30 21:33N 34°42' E 135°17'1212.2
2016-Nov-30 20:33N 34°34' E 135°05'12 0.4
2016-Nov-29 11:29N 34°34' E 134°50'1819.5
2016-Nov-29 10:33N 34°36' E 135°12'7 6.6
2016-Nov-29 09:33N 34°42' E 135°17'0 0.0
2016-Nov-29 08:30N 34°42' E 135°17'0 0.0
2016-Nov-29 07:30N 34°42' E 135°17'0 0.0
2016-Nov-29 06:24N 34°42' E 135°17'0 0.0
2016-Nov-29 05:30N 34°42' E 135°17'0 0.0
2016-Nov-29 04:24N 34°42' E 135°17'0 0.0
2016-Nov-29 03:24N 34°42' E 135°17'0 0.0
2016-Nov-29 02:24N 34°42' E 135°17'0 0.0
2016-Nov-29 01:30N 34°42' E 135°17'0 0.0
2016-Nov-29 00:30N 34°42' E 135°17'0 0.0
2016-Nov-28 23:24N 34°42' E 135°17'0 0.0
2016-Nov-28 22:30N 34°42' E 135°17'0 0.0
2016-Nov-28 21:33N 34°42' E 135°17'10 9.7
2016-Nov-28 20:33N 34°35' E 135°09'17 0.5
2016-Nov-27 11:28N 34°34' E 134°49'  

Dump ship's entire track history